Time;durP1;ratioP1;P1;durP2;ratioP2;P2;SDS_P1;SDS_P2;PMS_P1;PMS_P2;Temp;Humidity;BMP_temperature;BMP_pressure;BME280_temperature;BME280_humidity;BME280_pressure;Samples;Min_cycle;Max_cycle;Signal;HPM_P1;HPM_P2
2021/12/04 00:01:06;;;;;;;4.15;3.75;;;3.40;1.00;;;;;;5052038;28;20417;-61
2021/12/04 00:03:33;;;;;;;3.92;3.50;;;3.30;1.00;;;;;;5051849;28;20432;-61
2021/12/04 00:06:06;;;;;;;4.07;3.67;;;3.30;1.00;;;;;;5051848;28;20428;-61
2021/12/04 00:08:35;;;;;;;4.47;3.85;;;3.30;1.00;;;;;;5051850;28;20421;-61
2021/12/04 00:11:02;;;;;;;4.60;4.20;;;3.30;1.00;;;;;;5051921;28;20417;-61
2021/12/04 00:13:29;;;;;;;3.92;3.63;;;3.40;1.00;;;;;;5051521;28;20445;-61
2021/12/04 00:15:56;;;;;;;3.80;3.40;;;3.40;1.00;;;;;;5051749;28;20417;-61
2021/12/04 00:18:23;;;;;;;4.70;3.53;;;3.40;1.00;;;;;;5051712;28;20490;-61
2021/12/04 00:20:50;;;;;;;4.20;3.80;;;3.50;1.00;;;;;;5051395;28;20908;-61
2021/12/04 00:23:16;;;;;;;3.50;3.20;;;3.40;1.00;;;;;;5050899;28;20459;-61
2021/12/04 00:25:43;;;;;;;3.80;3.40;;;3.50;1.00;;;;;;5051437;28;20498;-61
2021/12/04 00:28:10;;;;;;;3.80;3.50;;;3.50;1.00;;;;;;5051536;28;20952;-61
2021/12/04 00:30:38;;;;;;;4.10;3.50;;;3.50;1.00;;;;;;5051467;28;20436;-61
2021/12/04 00:33:08;;;;;;;3.60;3.30;;;3.50;1.00;;;;;;5050869;28;20479;-61
2021/12/04 00:35:42;;;;;;;3.50;2.80;;;3.50;1.00;;;;;;5051352;28;20490;-62
2021/12/04 00:49:11;;;;;;;4.07;3.67;;;3.60;1.00;;;;;;5051151;28;20403;-60
2021/12/04 00:51:39;;;;;;;4.50;4.10;;;3.50;1.00;;;;;;5050949;28;20417;-61
2021/12/04 00:54:09;;;;;;;4.53;4.13;;;3.50;1.00;;;;;;5050774;28;20943;-61
2021/12/04 00:56:36;;;;;;;4.28;3.88;;;3.70;1.00;;;;;;5051109;28;20762;-61
2021/12/04 00:59:03;;;;;;;4.60;4.13;;;3.70;1.00;;;;;;5050967;28;20416;-61
2021/12/04 01:01:31;;;;;;;4.60;3.92;;;3.60;1.00;;;;;;5050639;28;20420;-61
2021/12/04 01:03:58;;;;;;;5.55;4.47;;;3.70;1.00;;;;;;5050899;28;20777;-61
2021/12/04 01:06:24;;;;;;;5.30;4.70;;;3.50;1.00;;;;;;5050714;28;20412;-61
2021/12/04 01:08:51;;;;;;;5.38;4.57;;;3.40;1.00;;;;;;5051083;28;20426;-61
2021/12/04 01:11:18;;;;;;;6.33;5.60;;;3.50;1.00;;;;;;5050184;28;20777;-61
2021/12/04 01:13:45;;;;;;;6.82;5.43;;;3.40;1.00;;;;;;5050599;28;20451;-61
2021/12/04 01:16:12;;;;;;;6.13;5.20;;;3.50;1.00;;;;;;5050682;28;20467;-61
2021/12/04 01:18:40;;;;;;;7.20;6.00;;;3.50;1.00;;;;;;5050761;28;20838;-61
2021/12/04 01:21:06;;;;;;;7.72;6.60;;;3.40;1.00;;;;;;5050455;28;20534;-61
2021/12/04 01:23:33;;;;;;;7.03;6.10;;;3.30;1.00;;;;;;5050266;28;20421;-61
2021/12/04 01:26:00;;;;;;;8.15;6.18;;;3.40;34.50;;;;;;5050454;28;20482;-61
2021/12/04 01:28:26;;;;;;;7.53;6.47;;;3.40;63.80;;;;;;5050677;28;20409;-61
2021/12/04 01:30:53;;;;;;;8.00;6.90;;;3.40;86.40;;;;;;5050553;28;20413;-61
2021/12/04 01:33:20;;;;;;;8.32;6.70;;;3.30;95.70;;;;;;5049975;28;20413;-61
2021/12/04 01:35:48;;;;;;;7.30;6.50;;;3.30;99.90;;;;;;5050520;28;20420;-61
2021/12/04 01:38:15;;;;;;;7.35;6.20;;;3.30;99.90;;;;;;5050215;28;21045;-61
2021/12/04 01:40:43;;;;;;;6.88;6.18;;;3.30;99.90;;;;;;5050730;28;20484;-61
2021/12/04 01:43:10;;;;;;;6.80;6.10;;;3.40;99.90;;;;;;5051853;28;20425;-61
2021/12/04 01:45:37;;;;;;;7.65;5.85;;;3.50;99.90;;;;;;5054349;28;20417;-61
2021/12/04 01:48:04;;;;;;;6.45;5.25;;;3.60;99.90;;;;;;5054447;28;20416;-61
2021/12/04 01:50:32;;;;;;;6.17;5.57;;;3.60;99.90;;;;;;5054269;28;20418;-61
2021/12/04 01:53:01;;;;;;;6.93;5.60;;;3.60;97.80;;;;;;5053596;28;20943;-61
2021/12/04 01:55:30;;;;;;;7.38;6.10;;;3.50;81.00;;;;;;5054337;28;20416;-61
2021/12/04 01:57:57;;;;;;;6.55;5.13;;;3.50;70.00;;;;;;5054330;28;20413;-61
2021/12/04 02:00:24;;;;;;;6.03;5.10;;;3.70;56.00;;;;;;5054281;28;20508;-61
2021/12/04 02:02:51;;;;;;;5.43;4.80;;;3.70;1.00;;;;;;5053556;28;20425;-61
2021/12/04 02:05:17;;;;;;;6.00;5.15;;;3.80;1.00;;;;;;5054188;28;20425;-61
2021/12/04 02:07:45;;;;;;;6.28;5.25;;;3.70;1.00;;;;;;5054051;28;20413;-61
2021/12/04 02:10:13;;;;;;;6.53;4.97;;;3.70;1.00;;;;;;5054305;28;20777;-61
2021/12/04 02:12:40;;;;;;;5.80;5.20;;;3.70;1.00;;;;;;5053481;28;20413;-61
2021/12/04 02:15:12;;;;;;;5.40;4.90;;;3.70;1.00;;;;;;5053895;28;20893;-61
2021/12/04 02:17:39;;;;;;;5.63;4.93;;;3.70;1.00;;;;;;5053855;28;20409;-60
2021/12/04 02:20:11;;;;;;;5.80;5.20;;;3.70;1.00;;;;;;5053763;28;20417;-61
2021/12/04 02:22:38;;;;;;;5.90;5.13;;;3.70;1.00;;;;;;5053319;28;20771;-61
2021/12/04 02:25:08;;;;;;;5.40;4.90;;;3.60;1.00;;;;;;5053621;28;20475;-61
2021/12/04 02:27:35;;;;;;;6.20;4.80;;;3.70;1.00;;;;;;5054048;28;20417;-61
2021/12/04 02:30:02;;;;;;;5.30;4.75;;;3.90;1.00;;;;;;5053603;28;20421;-61
2021/12/04 02:32:30;;;;;;;6.88;5.38;;;3.80;1.00;;;;;;5053214;28;20424;-61
2021/12/04 02:34:57;;;;;;;6.70;5.35;;;3.80;1.00;;;;;;5053875;28;20755;-61
2021/12/04 02:37:25;;;;;;;6.75;5.78;;;3.80;1.00;;;;;;5053621;28;20417;-61
2021/12/04 02:39:58;;;;;;;7.30;5.75;;;3.80;1.00;;;;;;5053658;28;20417;-61
2021/12/04 02:42:28;;;;;;;5.93;5.30;;;3.80;1.00;;;;;;5053234;28;20418;-61
2021/12/04 02:44:55;;;;;;;8.00;5.70;;;3.80;1.00;;;;;;5053087;28;20583;-61
2021/12/04 02:47:22;;;;;;;6.43;5.63;;;3.70;1.00;;;;;;5053395;28;20478;-61
2021/12/04 02:49:48;;;;;;;6.72;5.50;;;3.70;1.00;;;;;;5053379;28;20424;-61
2021/12/04 02:52:16;;;;;;;6.70;5.38;;;3.80;1.00;;;;;;5052895;28;20475;-61
2021/12/04 02:54:44;;;;;;;5.50;4.90;;;3.80;1.00;;;;;;5052746;28;20405;-61
2021/12/04 02:57:13;;;;;;;6.63;5.93;;;3.90;1.00;;;;;;5053233;28;20413;-62
2021/12/04 02:59:42;;;;;;;7.50;6.38;;;3.80;1.00;;;;;;5053118;28;20413;-61
2021/12/04 03:02:16;;;;;;;7.32;5.65;;;3.70;1.00;;;;;;5052703;28;20881;-61
2021/12/04 03:04:43;;;;;;;6.65;5.68;;;3.70;1.00;;;;;;5053017;28;20436;-60
2021/12/04 03:07:09;;;;;;;6.07;5.47;;;3.70;1.00;;;;;;5053027;28;20416;-61
2021/12/04 03:09:36;;;;;;;6.72;5.47;;;3.80;1.00;;;;;;5052986;28;20413;-61
2021/12/04 03:12:05;;;;;;;6.88;5.53;;;3.90;1.00;;;;;;5052467;28;20410;-61
2021/12/04 03:14:32;;;;;;;6.75;5.10;;;3.90;1.00;;;;;;5052900;28;20781;-63
2021/12/04 03:16:59;;;;;;;5.82;5.18;;;3.90;1.00;;;;;;5052800;28;20481;-62
2021/12/04 03:19:27;;;;;;;7.05;5.70;;;3.90;1.00;;;;;;5052718;28;20448;-62
2021/12/04 03:21:54;;;;;;;6.78;5.70;;;3.80;1.00;;;;;;5052536;28;20424;-60
2021/12/04 03:24:21;;;;;;;6.85;5.93;;;3.80;1.00;;;;;;5052550;28;20802;-60
2021/12/04 03:26:50;;;;;;;6.88;6.18;;;3.70;1.00;;;;;;5052482;28;20483;-61
2021/12/04 03:29:21;;;;;;;6.10;5.35;;;3.80;1.00;;;;;;5052511;28;20421;-61
2021/12/04 03:32:09;;;;;;;7.10;5.25;;;3.90;1.00;;;;;;5051972;28;20909;-61
2021/12/04 03:40:11;;;;;;;6.97;5.35;;;3.90;1.00;;;;;;5052438;28;20400;-61
2021/12/04 03:42:40;;;;;;;6.65;5.90;;;3.90;1.00;;;;;;5051806;28;20435;-61
2021/12/04 03:45:10;;;;;;;11.13;5.80;;;3.90;1.00;;;;;;5052157;28;20433;-61
2021/12/04 03:47:40;;;;;;;5.40;4.72;;;3.90;1.00;;;;;;5052065;28;20420;-61
2021/12/04 03:50:08;;;;;;;5.60;5.00;;;3.90;1.00;;;;;;5052316;28;20460;-61
2021/12/04 03:52:36;;;;;;;6.68;5.07;;;4.10;1.00;;;;;;5052052;28;20449;-61
2021/12/04 03:55:03;;;;;;;5.22;4.72;;;4.10;1.00;;;;;;5052077;28;20409;-61
2021/12/04 03:57:30;;;;;;;6.70;4.53;;;4.10;1.00;;;;;;5052069;28;20421;-61
2021/12/04 03:59:59;;;;;;;5.50;4.93;;;4.10;1.00;;;;;;5051808;28;20918;-61
2021/12/04 04:02:28;;;;;;;6.07;5.18;;;4.00;1.00;;;;;;5051529;28;20932;-61
2021/12/04 04:04:55;;;;;;;6.00;5.40;;;3.80;1.00;;;;;;5051057;28;20978;-61
2021/12/04 04:07:23;;;;;;;6.30;5.28;;;3.90;1.00;;;;;;5051671;28;20413;-61
2021/12/04 04:09:49;;;;;;;6.22;4.88;;;3.90;1.00;;;;;;5051810;28;20420;-61
2021/12/04 04:12:16;;;;;;;5.95;4.97;;;4.00;1.00;;;;;;5051313;28;20436;-61
2021/12/04 04:14:43;;;;;;;5.38;4.80;;;4.00;1.00;;;;;;5051377;28;20777;-61
2021/12/04 04:17:10;;;;;;;5.00;4.50;;;4.10;1.00;;;;;;5051648;28;20420;-61
2021/12/04 04:19:38;;;;;;;5.53;4.90;;;4.20;1.00;;;;;;5051721;28;20452;-61
2021/12/04 04:22:05;;;;;;;5.40;4.90;;;4.10;1.00;;;;;;5051197;28;20430;-61
2021/12/04 04:24:33;;;;;;;6.32;4.95;;;4.10;1.00;;;;;;5051311;28;20436;-61
2021/12/04 04:27:00;;;;;;;5.07;4.25;;;4.10;1.00;;;;;;5051519;28;20417;-61
2021/12/04 04:29:27;;;;;;;5.47;4.93;;;4.20;1.00;;;;;;5051445;28;20467;-61
2021/12/04 04:31:55;;;;;;;6.75;5.22;;;4.30;1.00;;;;;;5051160;28;20804;-61
2021/12/04 04:34:25;;;;;;;5.68;5.15;;;4.20;1.00;;;;;;5051331;28;20453;-61
2021/12/04 04:37:06;;;;;;;6.28;4.85;;;4.20;1.00;;;;;;5051324;28;20456;-61
2021/12/04 04:58:51;;;;;;;5.72;5.03;;;4.20;1.00;;;;;;5051047;28;21158;-61
2021/12/04 05:01:28;;;;;;;6.90;5.90;;;4.20;1.00;;;;;;5050577;28;20417;-61
2021/12/04 05:12:18;;;;;;;6.60;5.70;;;4.10;1.00;;;;;;5050479;28;20774;-61
2021/12/04 05:14:49;;;;;;;7.75;6.25;;;4.10;1.00;;;;;;5050434;28;20419;-61
2021/12/04 05:17:28;;;;;;;7.35;6.20;;;4.00;1.00;;;;;;5050445;28;20418;-61
2021/12/04 05:19:55;;;;;;;6.43;5.70;;;4.00;1.00;;;;;;5050767;28;20413;-61
2021/12/04 05:22:23;;;;;;;6.43;5.72;;;4.10;1.00;;;;;;5050406;28;20436;-61
2021/12/04 05:24:51;;;;;;;7.00;5.57;;;4.10;1.00;;;;;;5050044;28;20503;-61
2021/12/04 05:27:18;;;;;;;6.07;5.47;;;4.10;1.00;;;;;;5050696;28;20527;-62
2021/12/04 05:29:45;;;;;;;5.82;4.93;;;4.20;1.00;;;;;;5050415;28;20424;-61
2021/12/04 05:32:12;;;;;;;6.30;5.70;;;4.20;1.00;;;;;;5050231;28;20417;-61
2021/12/04 05:34:39;;;;;;;6.82;5.60;;;4.10;1.00;;;;;;5050632;28;20413;-61
2021/12/04 05:37:06;;;;;;;6.32;5.72;;;4.00;1.00;;;;;;5050488;28;20421;-62
2021/12/04 05:39:32;;;;;;;6.65;5.57;;;4.00;1.00;;;;;;5050625;28;20409;-61
2021/12/04 05:42:01;;;;;;;6.10;5.25;;;4.00;1.00;;;;;;5050017;28;20417;-62
2021/12/04 05:44:29;;;;;;;5.93;5.33;;;4.00;1.00;;;;;;5050200;28;20909;-62
2021/12/04 05:47:00;;;;;;;6.25;5.45;;;4.10;1.00;;;;;;5050499;28;20422;-62
2021/12/04 05:49:30;;;;;;;6.07;5.13;;;4.10;1.00;;;;;;5050562;28;20828;-61
2021/12/04 05:52:10;;;;;;;5.90;4.85;;;4.10;1.00;;;;;;5050404;28;20482;-61
2021/12/04 05:55:08;;;;;;;6.25;4.50;;;4.20;1.00;;;;;;5050149;28;20513;-62
2021/12/04 05:57:36;;;;;;;5.93;4.93;;;4.30;1.00;;;;;;5050529;28;20456;-61
2021/12/04 06:00:04;;;;;;;6.93;5.60;;;4.10;1.00;;;;;;5050505;28;20801;-61
2021/12/04 06:02:31;;;;;;;5.65;4.70;;;3.90;1.00;;;;;;5049956;28;20420;-62
2021/12/04 06:04:57;;;;;;;6.20;5.30;;;4.00;1.00;;;;;;5050123;28;20421;-61
2021/12/04 06:07:24;;;;;;;5.70;5.07;;;4.10;1.00;;;;;;5050448;28;20417;-61
2021/12/04 06:09:51;;;;;;;5.75;5.15;;;4.00;1.00;;;;;;5050352;28;20832;-61
2021/12/04 06:12:17;;;;;;;5.83;4.93;;;4.20;1.00;;;;;;5049972;28;20560;-61
2021/12/04 06:14:48;;;;;;;7.07;5.60;;;4.20;1.00;;;;;;5050542;28;20456;-61
2021/12/04 06:17:18;;;;;;;6.20;5.20;;;4.10;1.00;;;;;;5050245;28;20783;-62
2021/12/04 06:22:38;;;;;;;6.45;5.05;;;4.20;1.00;;;;;;5049803;28;20503;-61
2021/12/04 06:25:06;;;;;;;6.65;5.40;;;4.10;1.00;;;;;;5050012;28;20523;-61
2021/12/04 06:27:33;;;;;;;6.53;5.60;;;4.10;1.00;;;;;;5050048;28;20416;-64
2021/12/04 06:30:01;;;;;;;6.40;5.00;;;4.00;1.00;;;;;;5052851;28;20770;-61
2021/12/04 06:32:27;;;;;;;6.07;5.47;;;4.00;1.00;;;;;;5053447;28;20829;-61
2021/12/04 06:34:54;;;;;;;6.00;5.32;;;4.00;1.00;;;;;;5053659;28;20416;-62
2021/12/04 06:37:21;;;;;;;5.82;4.82;;;3.90;1.00;;;;;;5053443;28;21137;-61
2021/12/04 06:39:47;;;;;;;5.85;5.20;;;4.00;1.00;;;;;;5053545;28;20417;-61
2021/12/04 06:42:14;;;;;;;6.60;5.32;;;4.00;1.00;;;;;;5053191;28;20413;-61
2021/12/04 06:44:41;;;;;;;5.93;4.95;;;3.90;1.00;;;;;;5052919;28;20425;-61
2021/12/04 06:47:09;;;;;;;5.85;5.25;;;4.00;1.00;;;;;;5053369;28;20931;-61
2021/12/04 06:49:38;;;;;;;6.10;5.50;;;3.90;1.00;;;;;;5053215;28;20467;-61
2021/12/04 06:52:09;;;;;;;5.57;5.03;;;4.00;1.00;;;;;;5052963;28;20418;-61
2021/12/04 06:54:38;;;;;;;5.43;4.88;;;4.10;1.00;;;;;;5053011;28;20973;-61
2021/12/04 06:57:09;;;;;;;5.68;5.07;;;4.00;1.00;;;;;;5053090;28;20517;-61
2021/12/04 06:59:38;;;;;;;7.15;5.88;;;4.00;1.00;;;;;;5053044;28;20421;-61
2021/12/04 07:02:05;;;;;;;6.65;5.20;;;4.00;1.00;;;;;;5053191;28;20449;-61
2021/12/04 07:04:37;;;;;;;5.73;4.70;;;4.00;1.00;;;;;;5053076;28;20537;-61
2021/12/04 07:07:04;;;;;;;6.95;5.90;;;4.00;1.00;;;;;;5052912;28;20428;-61
2021/12/04 07:09:31;;;;;;;6.85;5.50;;;4.00;1.00;;;;;;5053228;28;20413;-61
2021/12/04 07:11:59;;;;;;;6.57;5.53;;;3.90;1.00;;;;;;5054244;28;20421;-61
2021/12/04 07:14:26;;;;;;;6.53;5.50;;;3.90;1.00;;;;;;5054548;28;20503;-62
2021/12/04 07:16:53;;;;;;;6.97;6.20;;;3.80;1.00;;;;;;5054253;28;20936;-63
2021/12/04 07:19:19;;;;;;;7.93;6.00;;;3.80;1.00;;;;;;5054519;28;20420;-61
2021/12/04 07:21:48;;;;;;;7.60;6.20;;;3.90;1.00;;;;;;5052788;28;20541;-61
2021/12/04 07:24:16;;;;;;;6.97;6.20;;;3.90;1.00;;;;;;5052413;28;20486;-61
2021/12/04 07:26:43;;;;;;;8.33;6.10;;;3.80;1.00;;;;;;5052740;28;20417;-61
2021/12/04 07:29:10;;;;;;;7.53;6.25;;;3.80;1.00;;;;;;5052758;28;21077;-61
2021/12/04 07:31:38;;;;;;;7.07;6.28;;;3.80;1.00;;;;;;5052268;28;20418;-61
2021/12/04 07:34:05;;;;;;;6.47;5.88;;;3.80;1.00;;;;;;5052444;28;20467;-61
2021/12/04 07:36:32;;;;;;;7.28;6.18;;;3.80;1.00;;;;;;5052362;28;20418;-61
2021/12/04 07:39:02;;;;;;;6.68;5.93;;;3.90;1.00;;;;;;5052389;28;20474;-61
2021/12/04 07:41:29;;;;;;;6.90;5.63;;;3.90;1.00;;;;;;5052354;28;20455;-63
2021/12/04 07:43:56;;;;;;;6.50;5.55;;;4.00;1.00;;;;;;5052598;28;20419;-62
2021/12/04 07:46:23;;;;;;;7.30;5.90;;;4.00;1.00;;;;;;5052060;28;20824;-61
2021/12/04 07:48:50;;;;;;;6.70;5.93;;;4.10;1.00;;;;;;5052223;28;20409;-61
2021/12/04 07:51:18;;;;;;;7.93;6.32;;;4.10;1.00;;;;;;5051593;28;21097;-62
2021/12/04 07:53:46;;;;;;;7.88;6.80;;;4.10;1.00;;;;;;5052203;28;20429;-61
2021/12/04 07:56:14;;;;;;;8.53;6.43;;;4.00;1.00;;;;;;5051947;28;20410;-61
2021/12/04 07:58:42;;;;;;;8.75;6.63;;;4.10;1.00;;;;;;5052059;28;20825;-61
2021/12/04 08:01:09;;;;;;;7.18;6.15;;;4.20;1.00;;;;;;5051252;28;20866;-61
2021/12/04 08:03:37;;;;;;;8.30;6.60;;;4.10;1.00;;;;;;5051787;28;20409;-61
2021/12/04 08:06:03;;;;;;;7.97;6.40;;;4.30;1.00;;;;;;5051647;28;20425;-61
2021/12/04 08:08:30;;;;;;;8.10;6.80;;;4.40;1.00;;;;;;5051503;28;20940;-61
2021/12/04 08:10:57;;;;;;;7.67;6.77;;;4.50;1.00;;;;;;5051731;28;20859;-61
2021/12/04 08:13:25;;;;;;;7.45;6.35;;;4.50;1.00;;;;;;5051351;28;20421;-61
2021/12/04 08:15:52;;;;;;;9.13;7.13;;;4.40;1.00;;;;;;5051544;28;20410;-61
2021/12/04 08:18:18;;;;;;;9.45;7.70;;;4.40;1.00;;;;;;5051347;28;20409;-62
2021/12/04 08:20:45;;;;;;;9.77;7.22;;;4.30;1.00;;;;;;5051672;28;20809;-61
2021/12/04 08:23:12;;;;;;;8.07;7.10;;;4.40;1.00;;;;;;5051124;28;20445;-61
2021/12/04 08:25:39;;;;;;;8.00;6.57;;;4.40;1.00;;;;;;5051167;28;20425;-61
2021/12/04 08:28:06;;;;;;;8.73;6.93;;;4.50;1.00;;;;;;5051393;28;20413;-61
2021/12/04 08:30:39;;;;;;;9.57;7.33;;;4.50;1.00;;;;;;5051282;28;20424;-61
2021/12/04 08:33:06;;;;;;;9.13;7.05;;;4.40;1.00;;;;;;5050703;28;20475;-61
2021/12/04 08:35:38;;;;;;;9.88;7.82;;;4.60;1.00;;;;;;5051011;28;20409;-61
2021/12/04 08:38:06;;;;;;;9.90;8.23;;;4.60;1.00;;;;;;5051281;28;20514;-61
2021/12/04 08:40:33;;;;;;;11.13;8.68;;;4.60;1.00;;;;;;5043815;28;20413;-60
2021/12/04 08:43:00;;;;;;;9.77;8.02;;;4.60;1.00;;;;;;5050105;28;20417;-59
2021/12/04 08:45:27;;;;;;;10.55;8.45;;;4.60;1.00;;;;;;5050549;28;20428;-59
2021/12/04 08:47:55;;;;;;;10.43;8.18;;;4.70;1.00;;;;;;5050494;28;20417;-59
2021/12/04 08:50:24;;;;;;;10.38;8.27;;;4.70;1.00;;;;;;5049032;28;20471;-59
2021/12/04 08:52:52;;;;;;;11.00;8.75;;;4.80;1.00;;;;;;5048618;28;20419;-59
2021/12/04 08:55:19;;;;;;;10.82;8.15;;;4.80;1.00;;;;;;5050370;28;20413;-59
2021/12/04 08:57:46;;;;;;;11.27;9.10;;;4.80;1.00;;;;;;5050579;28;20417;-57
2021/12/04 09:00:16;;;;;;;12.32;9.55;;;4.60;1.00;;;;;;5050131;28;20467;-59
2021/12/04 09:02:44;;;;;;;10.47;8.63;;;4.70;1.00;;;;;;5050257;28;20762;-59
2021/12/04 09:05:15;;;;;;;11.50;8.98;;;4.60;1.00;;;;;;5049991;28;20429;-58
2021/12/04 09:07:43;;;;;;;10.48;8.48;;;4.70;1.00;;;;;;5050510;28;20409;-59
2021/12/04 09:10:11;;;;;;;12.98;9.57;;;4.80;1.00;;;;;;5049828;28;20483;-60
2021/12/04 09:12:39;;;;;;;14.02;9.57;;;4.70;1.00;;;;;;5049817;28;20421;-60
2021/12/04 09:15:09;;;;;;;11.87;9.60;;;4.80;1.00;;;;;;5050410;28;20413;-58
2021/12/04 09:17:36;;;;;;;13.55;9.68;;;4.80;1.00;;;;;;5050518;28;20417;-58
2021/12/04 09:20:04;;;;;;;10.10;8.20;;;4.90;1.00;;;;;;5050097;28;20417;-60
2021/12/04 09:22:35;;;;;;;10.70;8.38;;;5.00;1.00;;;;;;5049721;28;20562;-60
2021/12/04 09:25:03;;;;;;;11.70;9.10;;;4.90;1.00;;;;;;5049786;28;20447;-59
2021/12/04 09:27:42;;;;;;;11.20;9.00;;;4.90;1.00;;;;;;5050230;28;20417;-59
2021/12/04 09:30:25;;;;;;;11.00;8.65;;;4.90;1.00;;;;;;5050065;28;20413;-59
2021/12/04 09:36:06;;;;;;;9.68;8.20;;;4.90;1.00;;;;;;5049965;28;20388;-60
2021/12/04 10:00:43;;;;;;;9.30;8.20;;;4.80;1.00;;;;;;5049601;28;20544;-60
2021/12/04 10:03:34;;;;;;;8.57;7.25;;;4.90;1.00;;;;;;5049971;28;20417;-62
2021/12/04 10:12:14;;;;;;;7.28;6.15;;;5.00;1.00;;;;;;5053309;28;20797;-62
2021/12/04 10:17:53;;;;;;;6.93;6.13;;;5.40;1.00;;;;;;5028855;28;20423;-62
2021/12/04 10:20:29;;;;;;;8.65;6.72;;;5.40;1.00;;;;;;5053357;28;20837;-64
2021/12/04 10:23:13;;;;;;;7.88;6.30;;;5.50;1.00;;;;;;5053295;28;20408;-64
2021/12/04 10:34:26;;;;;;;6.38;5.65;;;5.60;1.00;;;;;;5011035;28;20427;-60
2021/12/04 10:36:53;;;;;;;6.90;6.05;;;5.50;1.00;;;;;;5011277;28;20499;-60
2021/12/04 10:39:21;;;;;;;7.28;5.75;;;5.50;1.00;;;;;;5029801;28;20425;-61
2021/12/04 10:41:48;;;;;;;7.80;6.20;;;5.30;1.00;;;;;;5052523;28;20413;-61
2021/12/04 10:44:18;;;;;;;6.25;5.63;;;5.40;1.00;;;;;;5053218;28;20413;-62
2021/12/04 10:46:57;;;;;;;6.60;5.43;;;5.50;1.00;;;;;;5053185;28;20459;-61
2021/12/04 10:49:51;;;;;;;6.82;5.30;;;5.50;1.00;;;;;;5053034;28;20774;-57
2021/12/04 10:52:32;;;;;;;7.22;5.95;;;5.30;1.00;;;;;;5052368;28;20417;-60
2021/12/04 10:55:13;;;;;;;6.93;5.65;;;5.20;1.00;;;;;;5052726;28;20417;-61
2021/12/04 11:00:38;;;;;;;6.40;5.07;;;5.50;1.00;;;;;;5052552;28;20397;-63
2021/12/04 11:03:19;;;;;;;6.03;5.43;;;5.60;1.00;;;;;;5052522;28;20500;-64
2021/12/04 11:06:19;;;;;;;5.60;5.00;;;5.50;1.00;;;;;;5052695;28;20964;-58
2021/12/04 11:22:50;;;;;;;5.35;4.60;;;5.50;1.00;;;;;;5027350;28;20543;-62
2021/12/04 11:28:20;;;;;;;4.82;4.18;;;5.60;1.00;;;;;;5050288;28;20402;-62
2021/12/04 11:36:49;;;;;;;4.50;3.90;;;5.40;1.00;;;;;;5018396;28;20790;-63
2021/12/04 11:39:39;;;;;;;4.60;4.20;;;5.60;1.00;;;;;;5051391;28;20413;-63
2021/12/04 11:42:10;;;;;;;4.40;4.00;;;5.70;1.00;;;;;;5052006;28;20882;-63
2021/12/04 11:49:50;;;;;;;5.07;4.63;;;5.70;1.00;;;;;;4641431;22;20451;-62
2021/12/04 11:52:19;;;;;;;4.90;4.40;;;5.80;1.00;;;;;;5071458;28;20408;-63
2021/12/04 11:54:48;;;;;;;5.07;4.57;;;5.50;1.00;;;;;;5071801;28;20415;-62
2021/12/04 11:57:18;;;;;;;4.20;3.80;;;5.50;1.00;;;;;;5071946;28;20438;-62
2021/12/04 11:59:47;;;;;;;4.28;3.88;;;5.50;1.00;;;;;;5072034;28;20439;-63
2021/12/04 12:02:24;;;;;;;4.40;4.00;;;5.60;1.00;;;;;;5071297;28;20415;-62
2021/12/04 12:04:55;;;;;;;4.03;3.63;;;5.80;1.00;;;;;;5071650;28;20482;-62
2021/12/04 12:07:25;;;;;;;5.13;3.50;;;6.00;1.00;;;;;;5071576;28;20399;-59
2021/12/04 12:10:05;;;;;;;3.70;3.40;;;6.10;1.00;;;;;;5071377;28;20888;-61
2021/12/04 12:12:35;;;;;;;4.03;3.42;;;6.20;1.00;;;;;;5071153;28;20486;-59
2021/12/04 12:15:06;;;;;;;5.40;3.97;;;6.30;1.00;;;;;;5071609;28;20415;-61
2021/12/04 12:17:36;;;;;;;4.40;3.77;;;6.20;1.00;;;;;;5071349;28;20431;-61
2021/12/04 12:20:07;;;;;;;5.47;4.03;;;6.10;1.00;;;;;;5070564;28;20422;-62
2021/12/04 12:22:40;;;;;;;4.68;4.18;;;6.00;1.00;;;;;;5071284;28;20442;-62
2021/12/04 12:25:24;;;;;;;8.10;5.70;;;6.10;1.00;;;;;;5071530;28;20941;-62
2021/12/04 12:33:35;;;;;;;4.70;3.72;;;5.90;1.00;;;;;;5057405;28;20998;-59
2021/12/04 12:36:09;;;;;;;4.70;3.60;;;6.00;1.00;;;;;;5071685;28;20432;-61
2021/12/04 12:38:43;;;;;;;4.93;3.93;;;6.20;1.00;;;;;;5071785;28;20450;-60
2021/12/04 12:41:13;;;;;;;5.30;4.22;;;6.00;1.00;;;;;;5071040;28;20434;-60
2021/12/04 12:44:00;;;;;;;6.53;4.45;;;5.80;1.00;;;;;;5071224;28;20463;-60
2021/12/04 12:46:40;;;;;;;5.00;3.75;;;5.90;1.00;;;;;;5071236;28;20404;-61
2021/12/04 12:49:18;;;;;;;4.10;3.60;;;5.70;1.00;;;;;;5070935;28;20900;-61
2021/12/04 12:51:58;;;;;;;6.90;4.38;;;5.90;1.00;;;;;;5070829;28;20411;-60
2021/12/04 12:54:29;;;;;;;9.83;6.20;;;6.10;1.00;;;;;;5071181;28;20776;-60
2021/12/04 12:57:03;;;;;;;6.03;4.15;;;6.10;1.00;;;;;;5070890;28;20427;-61
2021/12/04 12:59:45;;;;;;;3.70;3.30;;;6.30;1.00;;;;;;5070999;28;20423;-62
2021/12/04 13:13:33;;;;;;;3.90;3.50;;;6.20;1.00;;;;;;5070631;28;20427;-60
2021/12/04 13:16:05;;;;;;;3.60;3.30;;;6.20;1.00;;;;;;5070649;28;20427;-60
2021/12/04 13:18:33;;;;;;;3.90;3.50;;;6.30;1.00;;;;;;5065971;28;20416;-59
2021/12/04 13:21:04;;;;;;;3.83;3.43;;;6.30;1.00;;;;;;5068036;28;20506;-60
2021/12/04 13:23:33;;;;;;;3.70;3.40;;;6.30;1.00;;;;;;5070314;28;20411;-63
2021/12/04 13:26:03;;;;;;;4.13;3.35;;;6.30;1.00;;;;;;5070366;28;20411;-62
2021/12/04 13:28:32;;;;;;;3.58;3.10;;;6.40;1.00;;;;;;5070299;28;20415;-60
2021/12/04 13:31:00;;;;;;;4.07;3.58;;;6.30;1.00;;;;;;5070019;28;20414;-62
2021/12/04 13:33:28;;;;;;;3.90;3.50;;;6.30;1.00;;;;;;5069875;28;20430;-62
2021/12/04 13:35:54;;;;;;;3.75;3.42;;;6.40;1.00;;;;;;5070871;28;20534;-62
2021/12/04 13:38:24;;;;;;;3.35;3.05;;;6.50;1.00;;;;;;5072491;28;20411;-62
2021/12/04 13:40:54;;;;;;;3.40;3.10;;;6.50;1.00;;;;;;5073657;28;20420;-62
2021/12/04 13:43:22;;;;;;;3.10;2.80;;;6.60;1.00;;;;;;5073918;28;20589;-62
2021/12/04 13:45:57;;;;;;;4.60;3.30;;;6.60;1.00;;;;;;5074694;28;20438;-62
2021/12/04 13:48:24;;;;;;;3.60;3.30;;;6.60;1.00;;;;;;5074321;28;20529;-63
2021/12/04 13:50:51;;;;;;;4.55;3.80;;;6.30;1.00;;;;;;5074058;28;20411;-62
2021/12/04 13:53:25;;;;;;;4.57;4.00;;;5.90;1.00;;;;;;5074151;28;20422;-62
2021/12/04 13:55:56;;;;;;;4.80;3.53;;;5.90;1.00;;;;;;5073861;28;20446;-60
2021/12/04 13:58:23;;;;;;;4.07;3.30;;;6.10;1.00;;;;;;5074315;28;20414;-60
2021/12/04 14:00:51;;;;;;;3.60;3.30;;;6.10;1.00;;;;;;5073813;28;20418;-59
2021/12/04 14:03:23;;;;;;;4.50;3.73;;;6.10;1.00;;;;;;5073571;28;20443;-60
2021/12/04 14:05:50;;;;;;;4.63;4.13;;;6.20;1.00;;;;;;5074002;28;20414;-63
2021/12/04 14:08:16;;;;;;;5.82;4.47;;;6.10;1.00;;;;;;5073573;28;20415;-63
2021/12/04 14:10:45;;;;;;;5.60;4.20;;;6.20;1.00;;;;;;5073395;28;20587;-64
2021/12/04 14:13:17;;;;;;;6.03;4.90;;;6.30;1.00;;;;;;5073303;28;20498;-64
2021/12/04 14:15:45;;;;;;;6.30;4.65;;;6.40;1.00;;;;;;5073755;28;20412;-60
2021/12/04 14:18:15;;;;;;;5.72;4.55;;;6.40;1.00;;;;;;5073575;28;20445;-60
2021/12/04 14:20:45;;;;;;;6.20;4.43;;;6.50;1.00;;;;;;5073526;28;20418;-55
2021/12/04 14:25:53;;;;;;;6.00;5.40;;;6.60;1.00;;;;;;4903809;26;20414;-60
2021/12/04 14:28:25;;;;;;;5.87;5.27;;;6.30;1.00;;;;;;5054128;28;20520;-62
2021/12/04 14:30:53;;;;;;;7.20;5.63;;;6.30;1.00;;;;;;5037983;28;20431;-62
2021/12/04 14:33:22;;;;;;;5.57;4.80;;;6.30;1.00;;;;;;5036737;28;20432;-59
2021/12/04 14:35:51;;;;;;;5.47;4.80;;;6.40;1.00;;;;;;5014368;28;20860;-60
2021/12/04 14:38:20;;;;;;;6.57;5.80;;;6.50;1.00;;;;;;5024102;28;20438;-60
2021/12/04 14:40:49;;;;;;;7.15;6.00;;;6.50;1.00;;;;;;5033396;28;20411;-58
2021/12/04 14:43:19;;;;;;;7.07;6.38;;;6.30;1.00;;;;;;5032958;28;20494;-62
2021/12/04 14:45:51;;;;;;;7.32;5.65;;;6.30;1.00;;;;;;5032378;28;20788;-61
2021/12/04 14:48:22;;;;;;;6.60;5.60;;;6.40;1.00;;;;;;5033613;28;20415;-60
2021/12/04 14:50:51;;;;;;;6.97;5.63;;;6.50;1.00;;;;;;5032963;28;20501;-61
2021/12/04 14:53:21;;;;;;;5.88;5.13;;;6.60;1.00;;;;;;5032929;28;20922;-61
2021/12/04 14:55:49;;;;;;;5.65;5.05;;;6.60;1.00;;;;;;5032965;28;20783;-61
2021/12/04 14:58:18;;;;;;;7.25;5.90;;;6.60;1.00;;;;;;5032696;28;20426;-60
2021/12/04 15:00:48;;;;;;;7.82;6.57;;;6.60;1.00;;;;;;5033134;28;20415;-54
2021/12/04 15:03:18;;;;;;;8.68;6.65;;;6.60;1.00;;;;;;5033552;28;20422;-61
2021/12/04 15:05:47;;;;;;;8.63;7.00;;;6.50;1.00;;;;;;5033214;28;20422;-62
2021/12/04 15:08:16;;;;;;;8.23;7.07;;;6.40;1.00;;;;;;5033040;28;20775;-63
2021/12/04 15:10:47;;;;;;;7.95;7.03;;;6.20;1.00;;;;;;5032860;28;20505;-63
2021/12/04 15:13:19;;;;;;;9.30;7.57;;;6.20;1.00;;;;;;5032733;28;20439;-63
2021/12/04 15:15:46;;;;;;;10.73;7.80;;;6.10;1.00;;;;;;5033191;28;20775;-62
2021/12/04 15:18:15;;;;;;;9.30;7.90;;;5.90;1.00;;;;;;5032179;28;20431;-63
2021/12/04 15:20:53;;;;;;;9.98;8.98;;;5.80;1.00;;;;;;5032830;28;20423;-63
2021/12/04 15:23:23;;;;;;;9.52;8.40;;;5.80;1.00;;;;;;5031794;28;20472;-63
2021/12/04 15:25:54;;;;;;;10.43;8.80;;;5.70;1.00;;;;;;5032590;28;20427;-62
2021/12/04 15:28:23;;;;;;;11.20;8.60;;;5.70;1.00;;;;;;5032748;28;20465;-63
2021/12/04 15:30:52;;;;;;;10.15;8.68;;;5.60;1.00;;;;;;5032487;28;21023;-63
2021/12/04 15:33:31;;;;;;;9.15;8.23;;;5.60;1.00;;;;;;5032100;28;20422;-63
2021/12/04 15:35:59;;;;;;;9.48;7.53;;;5.50;1.00;;;;;;5030752;28;20415;-62
2021/12/04 15:38:41;;;;;;;9.90;8.90;;;5.40;1.00;;;;;;5032342;28;20870;-61